createdAt,value
2022-08-30T00:00:41.472Z,36.30
2022-08-30T00:03:10.577Z,33.40
2022-08-30T00:05:37.234Z,33.40
2022-08-30T00:08:04.388Z,34.70
2022-08-30T00:10:31.798Z,32.70
2022-08-30T00:13:01.212Z,32.30
2022-08-30T00:15:28.623Z,36.30
2022-08-30T00:17:56.410Z,35.40
2022-08-30T00:20:27.504Z,34.90
2022-08-30T00:22:54.871Z,33.50
2022-08-30T00:25:22.674Z,38.50
2022-08-30T00:27:50.339Z,35.00
2022-08-30T00:30:18.803Z,32.60
2022-08-30T00:32:45.408Z,37.70
2022-08-30T00:35:15.663Z,35.50
2022-08-30T00:37:42.820Z,37.20
2022-08-30T00:40:10.912Z,36.80
2022-08-30T00:42:38.780Z,39.10
2022-08-30T00:45:19.014Z,36.50
2022-08-30T00:47:46.373Z,40.40
2022-08-30T00:50:15.037Z,36.30
2022-08-30T00:52:45.087Z,36.10
2022-08-30T00:55:13.540Z,41.40
2022-08-30T00:57:43.388Z,37.00
2022-08-30T01:00:11.896Z,37.40
2022-08-30T01:02:38.745Z,38.00
2022-08-30T01:05:08.200Z,41.20
2022-08-30T01:07:35.185Z,39.30
2022-08-30T01:10:04.414Z,43.10
2022-08-30T01:12:31.636Z,44.20
2022-08-30T01:14:59.001Z,40.50
2022-08-30T01:17:27.284Z,42.10
2022-08-30T01:19:58.637Z,43.10
2022-08-30T01:22:36.543Z,38.00
2022-08-30T01:25:08.354Z,37.80
2022-08-30T01:27:42.182Z,35.10
2022-08-30T01:30:10.110Z,39.30
2022-08-30T01:32:44.523Z,37.50
2022-08-30T01:35:14.412Z,44.40
2022-08-30T01:37:41.810Z,38.60
2022-08-30T01:40:09.666Z,39.60
2022-08-30T01:42:36.425Z,41.40
2022-08-30T01:45:05.534Z,38.60
2022-08-30T01:47:32.734Z,45.90
2022-08-30T01:49:59.842Z,35.00
2022-08-30T01:52:27.002Z,36.90
2022-08-30T01:54:54.152Z,38.10
2022-08-30T01:57:24.015Z,38.10
2022-08-30T01:59:50.712Z,35.90
2022-08-30T02:02:21.140Z,40.30
2022-08-30T02:04:48.183Z,35.30
2022-08-30T02:07:17.099Z,38.60
2022-08-30T02:09:44.084Z,35.70
2022-08-30T02:12:13.144Z,36.20
2022-08-30T02:14:40.109Z,35.60
2022-08-30T02:17:09.119Z,34.40
2022-08-30T02:19:36.746Z,37.60
2022-08-30T02:22:03.615Z,42.70
2022-08-30T02:24:30.788Z,45.00
2022-08-30T02:26:57.623Z,41.50
2022-08-30T02:29:25.617Z,42.80
2022-08-30T02:31:52.537Z,38.90
2022-08-30T02:34:20.104Z,40.90
2022-08-30T02:36:46.942Z,40.20
2022-08-30T02:39:14.832Z,40.10
2022-08-30T02:41:42.702Z,43.40
2022-08-30T02:44:10.478Z,42.10
2022-08-30T02:46:38.237Z,40.10
2022-08-30T02:49:30.300Z,43.40
2022-08-30T02:51:52.926Z,36.60
2022-08-30T02:54:19.475Z,34.70
2022-08-30T02:56:47.859Z,32.20
2022-08-30T02:59:16.381Z,35.90
2022-08-30T03:01:43.774Z,34.70
2022-08-30T03:04:12.967Z,34.00
2022-08-30T03:06:39.573Z,34.60
2022-08-30T03:09:06.183Z,35.30
2022-08-30T03:11:32.973Z,40.80
2022-08-30T03:13:59.585Z,36.70
2022-08-30T03:16:26.295Z,38.50
2022-08-30T03:18:52.863Z,37.00
2022-08-30T03:21:19.537Z,40.90
2022-08-30T03:23:46.351Z,47.00
2022-08-30T03:26:13.101Z,57.90
2022-08-30T03:28:39.840Z,74.00
2022-08-30T03:31:07.204Z,65.60
2022-08-30T03:33:33.978Z,43.10
2022-08-30T03:36:00.793Z,38.00
2022-08-30T03:38:27.432Z,30.30
2022-08-30T03:40:53.955Z,29.80
2022-08-30T03:43:20.519Z,29.30
2022-08-30T03:45:47.822Z,41.90
2022-08-30T03:48:14.550Z,39.40
2022-08-30T03:50:41.349Z,33.70
2022-08-30T03:53:08.010Z,36.30
2022-08-30T03:55:34.649Z,41.10
2022-08-30T03:58:01.292Z,35.90
2022-08-30T04:00:27.973Z,37.20
2022-08-30T04:02:54.789Z,43.50
2022-08-30T04:05:21.434Z,45.80
2022-08-30T04:07:48.235Z,57.00
2022-08-30T04:10:15.053Z,39.80
2022-08-30T04:12:44.096Z,43.70
2022-08-30T04:17:40.080Z,37.70
2022-08-30T04:20:07.765Z,38.80
2022-08-30T04:22:34.459Z,34.30
2022-08-30T04:25:01.027Z,36.40
2022-08-30T04:27:27.678Z,38.70
2022-08-30T04:29:54.426Z,38.90
2022-08-30T04:32:23.226Z,39.70
2022-08-30T04:34:50.083Z,41.80
2022-08-30T04:37:17.005Z,38.70
2022-08-30T04:39:44.160Z,40.90
2022-08-30T04:42:10.687Z,41.60
2022-08-30T04:44:37.410Z,44.40
2022-08-30T04:47:04.393Z,49.60
2022-08-30T04:49:31.247Z,46.90
2022-08-30T04:51:57.786Z,51.60
2022-08-30T04:54:24.292Z,43.90
2022-08-30T04:56:51.010Z,42.80
2022-08-30T04:59:17.745Z,42.50
2022-08-30T05:01:45.568Z,40.70
2022-08-30T05:04:13.971Z,36.70
2022-08-30T05:06:40.487Z,43.20
2022-08-30T05:09:07.065Z,39.10
2022-08-30T05:11:34.006Z,40.20
2022-08-30T05:14:00.661Z,40.30
2022-08-30T05:16:27.681Z,32.40
2022-08-30T05:18:54.630Z,31.10
2022-08-30T05:21:26.708Z,29.30
2022-08-30T05:23:58.487Z,28.70
2022-08-30T05:26:33.862Z,28.50
2022-08-30T05:29:01.111Z,26.00
2022-08-30T05:31:30.996Z,22.80
2022-08-30T05:33:58.797Z,19.20
2022-08-30T05:36:29.745Z,18.10
2022-08-30T05:41:26.592Z,18.50
2022-08-30T05:43:59.018Z,16.90
2022-08-30T05:46:27.663Z,19.90
2022-08-30T05:48:56.288Z,23.00
2022-08-30T05:51:25.988Z,19.30
2022-08-30T05:53:54.177Z,16.20
2022-08-30T05:56:25.249Z,15.50
2022-08-30T05:58:53.166Z,18.10
2022-08-30T06:01:22.891Z,15.40
2022-08-30T06:03:49.525Z,19.70
2022-08-30T06:06:16.298Z,15.10
2022-08-30T06:08:43.084Z,18.40
2022-08-30T06:11:09.758Z,18.80
2022-08-30T06:13:36.505Z,17.70
2022-08-30T06:16:03.613Z,18.60
2022-08-30T06:18:30.416Z,15.40
2022-08-30T06:20:57.252Z,15.00
2022-08-30T06:23:23.982Z,16.60
2022-08-30T06:25:51.212Z,17.10
2022-08-30T06:28:18.181Z,17.20
2022-08-30T06:30:45.052Z,17.10
2022-08-30T06:33:12.058Z,19.80
2022-08-30T06:35:52.391Z,18.00
2022-08-30T06:38:24.907Z,21.80
2022-08-30T06:40:51.589Z,17.10
2022-08-30T06:43:18.232Z,18.10
2022-08-30T06:45:44.749Z,15.30
2022-08-30T06:48:11.448Z,16.70
2022-08-30T06:50:37.997Z,16.20
2022-08-30T06:53:04.523Z,20.00
2022-08-30T06:55:31.887Z,19.50
2022-08-30T06:57:58.809Z,21.10
2022-08-30T07:00:25.640Z,18.60
2022-08-30T07:02:52.424Z,15.40
2022-08-30T07:05:19.671Z,20.90
2022-08-30T07:07:46.509Z,17.10
2022-08-30T07:10:13.354Z,16.90
2022-08-30T07:12:40.024Z,15.10
2022-08-30T07:15:09.067Z,17.90
2022-08-30T07:17:35.790Z,13.00
2022-08-30T07:20:04.668Z,16.10
2022-08-30T07:22:33.316Z,15.60
2022-08-30T07:25:00.225Z,15.00
2022-08-30T07:27:26.823Z,15.40
2022-08-30T07:29:53.537Z,12.80
2022-08-30T07:32:20.323Z,14.40
2022-08-30T07:34:46.997Z,15.80
2022-08-30T07:39:47.983Z,13.00
2022-08-30T07:42:15.581Z,14.90
2022-08-30T07:44:42.455Z,16.20
2022-08-30T07:47:09.317Z,12.30
2022-08-30T07:49:37.345Z,11.20
2022-08-30T07:52:05.343Z,14.50
2022-08-30T07:54:32.088Z,10.60
2022-08-30T07:56:58.863Z,10.10
2022-08-30T07:59:25.581Z,10.10
2022-08-30T08:01:52.352Z,9.70
2022-08-30T08:04:19.315Z,8.70
2022-08-30T08:06:46.542Z,8.70
2022-08-30T08:09:13.154Z,10.80
2022-08-30T08:11:40.029Z,8.60
2022-08-30T08:14:07.123Z,10.10
2022-08-30T08:16:36.083Z,9.70
2022-08-30T08:19:03.341Z,7.70
2022-08-30T08:21:30.050Z,7.20
2022-08-30T08:23:56.968Z,7.20
2022-08-30T08:26:23.567Z,7.00
2022-08-30T08:28:50.219Z,9.50
2022-08-30T08:31:33.105Z,8.50
2022-08-30T08:36:35.503Z,8.90
2022-08-30T08:39:04.114Z,7.10
2022-08-30T08:41:50.455Z,7.20
2022-08-30T08:47:23.654Z,7.30
2022-08-30T08:49:54.398Z,7.60
2022-08-30T08:52:42.864Z,6.00
2022-08-30T08:55:16.249Z,6.20
2022-08-30T08:57:43.300Z,9.40
2022-08-30T09:00:12.927Z,7.60
2022-08-30T09:02:55.812Z,9.30
2022-08-30T09:05:25.932Z,7.20
2022-08-30T09:08:00.803Z,7.10
2022-08-30T09:10:49.270Z,8.00
2022-08-30T09:13:14.978Z,6.50
2022-08-30T09:15:45.608Z,8.30
2022-08-30T09:18:19.298Z,9.80
2022-08-30T09:20:51.681Z,7.30
2022-08-30T09:23:21.198Z,7.70
2022-08-30T09:25:53.786Z,9.20
2022-08-30T09:28:27.120Z,8.20
2022-08-30T09:31:11.325Z,6.90
2022-08-30T09:33:38.697Z,8.40
2022-08-30T09:36:22.552Z,8.40
2022-08-30T09:39:00.266Z,6.20
2022-08-30T09:41:34.574Z,6.20
2022-08-30T09:44:14.426Z,7.90
2022-08-30T09:46:53.261Z,6.90
2022-08-30T09:49:40.684Z,8.30
2022-08-30T09:52:42.472Z,9.10
2022-08-30T09:55:56.407Z,5.50
2022-08-30T09:58:35.260Z,7.10
2022-08-30T10:01:15.414Z,9.30
2022-08-30T10:03:56.788Z,6.00
2022-08-30T10:06:23.328Z,5.80
2022-08-30T10:08:49.971Z,5.90
2022-08-30T10:11:27.458Z,5.50
2022-08-30T10:13:57.490Z,10.20
2022-08-30T10:16:35.695Z,5.70
2022-08-30T10:19:07.991Z,5.30
2022-08-30T10:21:41.688Z,4.80
2022-08-30T10:24:23.587Z,4.60
2022-08-30T10:26:54.441Z,4.20
2022-08-30T10:29:30.705Z,4.50
2022-08-30T10:32:24.993Z,3.30
2022-08-30T10:35:06.181Z,4.30
2022-08-30T10:37:39.762Z,3.90
2022-08-30T10:40:18.950Z,5.40
2022-08-30T10:42:47.233Z,4.50
2022-08-30T10:45:17.538Z,4.10
2022-08-30T10:47:59.337Z,3.40
2022-08-30T10:50:30.308Z,5.20
2022-08-30T10:53:07.773Z,4.30
2022-08-30T10:55:39.842Z,4.90
2022-08-30T10:58:06.981Z,5.90
2022-08-30T11:00:51.094Z,3.10
2022-08-30T11:03:51.586Z,4.90
2022-08-30T11:06:21.267Z,4.70
2022-08-30T11:08:57.134Z,3.90
2022-08-30T11:12:05.247Z,5.20
2022-08-30T11:14:32.973Z,4.70
2022-08-30T11:17:01.557Z,5.20
2022-08-30T11:19:36.979Z,6.30
2022-08-30T11:22:34.424Z,4.60
2022-08-30T11:25:12.735Z,4.00
2022-08-30T11:27:43.582Z,4.00
2022-08-30T11:30:26.916Z,4.50
2022-08-30T11:33:00.236Z,4.90
2022-08-30T11:35:38.075Z,5.70
2022-08-30T11:38:26.428Z,3.10
2022-08-30T11:40:56.112Z,4.50
2022-08-30T11:43:36.871Z,4.30
2022-08-30T11:46:28.747Z,5.50
2022-08-30T11:49:13.795Z,4.70
2022-08-30T11:55:30.654Z,5.00
2022-08-30T11:58:24.930Z,4.10
2022-08-30T12:01:40.911Z,4.90
2022-08-30T12:04:15.127Z,3.60
2022-08-30T12:06:42.061Z,4.00
2022-08-30T12:09:30.128Z,3.40
2022-08-30T12:11:59.634Z,7.10
2022-08-30T12:14:49.375Z,5.60
2022-08-30T12:17:44.958Z,4.10
2022-08-30T12:20:40.410Z,3.60
2022-08-30T12:23:23.888Z,4.10
2022-08-30T12:26:08.700Z,3.50
2022-08-30T12:28:42.073Z,6.80
2022-08-30T12:31:40.035Z,4.20
2022-08-30T12:34:07.120Z,3.40
2022-08-30T12:36:40.560Z,4.80
2022-08-30T12:39:14.128Z,3.70
2022-08-30T12:41:44.782Z,5.00
2022-08-30T12:44:18.983Z,5.20
2022-08-30T12:46:49.231Z,4.30
2022-08-30T12:49:22.146Z,3.70
2022-08-30T12:51:48.843Z,4.00
2022-08-30T12:54:23.812Z,3.20
2022-08-30T12:57:14.020Z,4.80
2022-08-30T12:59:54.204Z,6.00
2022-08-30T13:02:28.144Z,5.30
2022-08-30T13:04:56.483Z,3.80
2022-08-30T13:07:35.695Z,3.40
2022-08-30T13:10:16.135Z,4.80
2022-08-30T13:13:05.105Z,3.80
2022-08-30T13:15:35.334Z,5.40
2022-08-30T13:20:39.266Z,3.50
2022-08-30T13:23:10.683Z,3.90
2022-08-30T13:25:39.849Z,3.20
2022-08-30T13:28:08.003Z,3.10
2022-08-30T13:30:35.098Z,5.10
2022-08-30T13:33:02.214Z,4.10
2022-08-30T13:35:30.666Z,4.70
2022-08-30T13:38:00.685Z,3.90
2022-08-30T13:40:27.607Z,5.50
2022-08-30T13:42:54.722Z,4.60
2022-08-30T13:48:10.331Z,5.30
2022-08-30T13:50:37.078Z,6.10
2022-08-30T13:53:04.030Z,4.40
2022-08-30T13:55:30.766Z,6.00
2022-08-30T13:57:58.141Z,4.00
2022-08-30T14:00:26.106Z,5.20
2022-08-30T14:02:55.527Z,5.40
2022-08-30T14:11:04.734Z,6.40
2022-08-30T14:13:32.174Z,6.10
2022-08-30T14:18:48.186Z,4.90
2022-08-30T14:21:16.145Z,5.10
2022-08-30T14:23:42.990Z,4.80
2022-08-30T14:26:20.854Z,6.30
2022-08-30T14:28:51.434Z,5.90
2022-08-30T14:31:19.765Z,7.80
2022-08-30T14:33:47.479Z,6.90
2022-08-30T14:36:15.840Z,7.60
2022-08-30T14:38:43.300Z,7.30
2022-08-30T14:41:10.314Z,6.60
2022-08-30T14:43:36.921Z,7.20
2022-08-30T14:46:04.006Z,4.80
2022-08-30T14:48:30.808Z,6.00
2022-08-30T14:50:57.470Z,5.90
2022-08-30T14:53:24.137Z,4.90
2022-08-30T14:55:51.262Z,6.50
2022-08-30T14:58:17.982Z,6.80
2022-08-30T15:00:53.756Z,5.10
2022-08-30T15:03:20.454Z,9.30
2022-08-30T15:05:52.982Z,5.80
2022-08-30T15:08:19.891Z,8.30
2022-08-30T15:10:46.480Z,8.10
2022-08-30T15:13:13.231Z,6.10
2022-08-30T15:15:42.633Z,6.60
2022-08-30T15:18:10.374Z,6.60
2022-08-30T15:20:37.665Z,6.70
2022-08-30T15:23:05.010Z,5.00
2022-08-30T15:25:31.743Z,6.40
2022-08-30T15:27:58.499Z,4.80
2022-08-30T15:30:25.390Z,5.10
2022-08-30T15:32:52.109Z,5.00
2022-08-30T15:35:19.068Z,5.50
2022-08-30T15:37:45.928Z,6.00
2022-08-30T15:40:13.202Z,6.20
2022-08-30T15:42:40.293Z,5.00
2022-08-30T15:45:10.034Z,6.90
2022-08-30T15:47:37.829Z,6.60
2022-08-30T15:50:06.696Z,6.30
2022-08-30T15:52:34.080Z,7.00
2022-08-30T15:55:00.805Z,5.30
2022-08-30T15:57:27.418Z,7.10
2022-08-30T15:59:54.301Z,5.40
2022-08-30T16:02:21.947Z,5.20
2022-08-30T16:04:54.238Z,5.50
2022-08-30T16:07:20.778Z,6.40
2022-08-30T16:09:47.733Z,7.00
2022-08-30T16:12:22.365Z,12.00
2022-08-30T16:14:51.290Z,21.10
2022-08-30T16:17:18.334Z,14.70
2022-08-30T16:19:45.262Z,12.20
2022-08-30T16:22:12.107Z,11.00
2022-08-30T16:24:38.752Z,13.00
2022-08-30T16:27:06.052Z,9.10
2022-08-30T16:29:35.827Z,7.50
2022-08-30T16:32:02.599Z,7.80
2022-08-30T16:34:29.315Z,5.20
2022-08-30T16:36:56.061Z,7.00
2022-08-30T16:39:22.708Z,7.60
2022-08-30T16:41:49.564Z,11.30
2022-08-30T16:44:18.655Z,5.20
2022-08-30T16:46:53.232Z,7.10
2022-08-30T16:49:20.365Z,6.40
2022-08-30T16:51:49.874Z,6.50
2022-08-30T16:54:17.893Z,7.80
2022-08-30T16:56:45.711Z,7.20
2022-08-30T16:59:12.741Z,7.20
2022-08-30T17:01:39.844Z,8.40
2022-08-30T17:04:07.156Z,8.90
2022-08-30T17:06:35.452Z,7.30
2022-08-30T17:09:03.686Z,10.00
2022-08-30T17:11:32.312Z,12.50
2022-08-30T17:13:59.471Z,31.50
2022-08-30T17:16:28.931Z,38.20
2022-08-30T17:19:00.644Z,28.00
2022-08-30T17:21:29.457Z,22.90
2022-08-30T17:24:01.842Z,15.10
2022-08-30T17:26:33.611Z,14.60
2022-08-30T17:29:01.138Z,19.00
2022-08-30T17:31:29.263Z,13.90
2022-08-30T17:34:01.151Z,13.80
2022-08-30T17:36:32.233Z,12.00
2022-08-30T17:38:58.888Z,12.50
2022-08-30T17:41:25.448Z,12.70
2022-08-30T17:43:51.972Z,11.50
2022-08-30T17:46:18.919Z,10.90
2022-08-30T17:48:45.790Z,12.10
2022-08-30T17:51:13.061Z,13.00
2022-08-30T17:53:40.077Z,12.60
2022-08-30T17:56:08.869Z,11.80
2022-08-30T17:58:35.616Z,9.50
2022-08-30T18:01:13.328Z,10.50
2022-08-30T18:03:41.300Z,8.80
2022-08-30T18:06:12.852Z,12.20
2022-08-30T18:08:39.859Z,11.70
2022-08-30T18:11:07.290Z,11.50
2022-08-30T18:13:34.665Z,14.20
2022-08-30T18:16:04.930Z,13.00
2022-08-30T18:18:32.445Z,15.50
2022-08-30T18:20:59.941Z,13.50
2022-08-30T18:23:27.337Z,14.70
2022-08-30T18:26:01.286Z,13.20
2022-08-30T18:28:29.838Z,22.70
2022-08-30T18:30:56.815Z,20.90
2022-08-30T18:33:25.955Z,21.70
2022-08-30T18:35:53.556Z,26.10
2022-08-30T18:38:23.833Z,23.80
2022-08-30T18:40:52.273Z,26.50
2022-08-30T18:43:24.649Z,26.80
2022-08-30T18:45:57.428Z,29.10
2022-08-30T18:48:24.690Z,32.70
2022-08-30T18:50:54.545Z,31.20
2022-08-30T18:53:28.749Z,34.80
2022-08-30T18:55:57.203Z,37.40
2022-08-30T18:58:24.050Z,29.10
2022-08-30T19:00:51.009Z,31.60
2022-08-30T19:03:18.820Z,32.90
2022-08-30T19:05:46.438Z,28.80
2022-08-30T19:08:13.583Z,35.00
2022-08-30T19:10:41.177Z,31.60
2022-08-30T19:13:08.317Z,31.70
2022-08-30T19:15:36.390Z,33.70
2022-08-30T19:18:16.649Z,31.40
2022-08-30T19:20:45.496Z,27.10
2022-08-30T19:23:12.907Z,28.10
2022-08-30T19:25:41.327Z,29.40
2022-08-30T19:28:09.132Z,26.50
2022-08-30T19:30:36.315Z,25.50
2022-08-30T19:33:03.270Z,28.50
2022-08-30T19:35:30.424Z,27.50
2022-08-30T19:37:57.940Z,26.90
2022-08-30T19:40:25.449Z,28.70
2022-08-30T19:42:52.306Z,27.80
2022-08-30T19:45:21.690Z,29.10
2022-08-30T19:47:49.687Z,27.30
2022-08-30T19:50:17.646Z,31.60
2022-08-30T19:52:48.387Z,26.10
2022-08-30T19:55:19.514Z,26.60
2022-08-30T19:57:55.231Z,28.20
2022-08-30T20:00:23.005Z,24.60
2022-08-30T20:02:50.807Z,27.50
2022-08-30T20:05:18.146Z,27.60
2022-08-30T20:07:45.051Z,25.50
2022-08-30T20:10:14.351Z,26.70
2022-08-30T20:12:45.453Z,23.70
2022-08-30T20:15:15.828Z,19.60
2022-08-30T20:18:02.466Z,25.60
2022-08-30T20:20:30.824Z,22.00
2022-08-30T20:22:57.873Z,24.80
2022-08-30T20:25:24.620Z,24.80
2022-08-30T20:27:51.224Z,24.00
2022-08-30T20:30:18.817Z,21.20
2022-08-30T20:32:45.575Z,20.70
2022-08-30T20:35:15.429Z,21.60
2022-08-30T20:37:43.167Z,23.60
2022-08-30T20:40:15.413Z,23.00
2022-08-30T20:42:44.235Z,24.10
2022-08-30T20:45:13.766Z,25.40
2022-08-30T20:47:42.443Z,26.80
2022-08-30T20:50:13.459Z,23.70
2022-08-30T20:52:40.983Z,26.30
2022-08-30T20:55:08.142Z,25.00
2022-08-30T20:57:35.118Z,27.50
2022-08-30T21:00:02.557Z,25.30
2022-08-30T21:02:29.588Z,22.90
2022-08-30T21:04:56.294Z,27.10
2022-08-30T21:07:22.959Z,22.30
2022-08-30T21:09:49.601Z,22.70
2022-08-30T21:12:16.449Z,20.00
2022-08-30T21:14:43.327Z,25.00
2022-08-30T21:17:10.039Z,23.20
2022-08-30T21:19:39.822Z,23.60
2022-08-30T21:22:08.789Z,22.10
2022-08-30T21:24:35.460Z,20.90
2022-08-30T21:27:03.190Z,20.70
2022-08-30T21:29:30.991Z,19.00
2022-08-30T21:31:58.206Z,19.90
2022-08-30T21:34:24.950Z,18.70
2022-08-30T21:36:51.593Z,21.30
2022-08-30T21:39:24.703Z,20.00
2022-08-30T21:41:54.279Z,17.90
2022-08-30T21:44:23.921Z,20.10
2022-08-30T21:46:53.225Z,17.60
2022-08-30T21:49:22.596Z,17.50
2022-08-30T21:51:51.414Z,16.50
2022-08-30T21:54:19.226Z,16.80
2022-08-30T21:56:47.998Z,18.90
2022-08-30T21:59:15.273Z,20.80
2022-08-30T22:01:42.583Z,18.30
2022-08-30T22:04:11.691Z,18.60
2022-08-30T22:06:41.592Z,19.80
2022-08-30T22:09:11.069Z,19.20
2022-08-30T22:11:37.901Z,18.70
2022-08-30T22:14:06.588Z,19.30
2022-08-30T22:16:34.422Z,19.50
2022-08-30T22:19:01.200Z,18.50
2022-08-30T22:21:30.897Z,19.90
2022-08-30T22:23:58.678Z,19.70
2022-08-30T22:26:26.540Z,16.70
2022-08-30T22:28:54.204Z,18.90
2022-08-30T22:31:22.678Z,16.00
2022-08-30T22:33:50.374Z,17.10
2022-08-30T22:36:32.606Z,17.10
2022-08-30T22:39:01.662Z,16.50
2022-08-30T22:41:31.174Z,14.80
2022-08-30T22:43:58.134Z,15.60
2022-08-30T22:46:29.303Z,17.70
2022-08-30T22:49:03.481Z,16.90
2022-08-30T22:51:30.544Z,22.30
2022-08-30T22:53:57.543Z,18.10
2022-08-30T22:56:26.178Z,19.00
2022-08-30T22:58:54.379Z,18.30
2022-08-30T23:01:27.743Z,16.20
2022-08-30T23:03:55.336Z,15.80
2022-08-30T23:06:22.903Z,16.20
2022-08-30T23:08:51.089Z,17.20
2022-08-30T23:11:18.568Z,15.10
2022-08-30T23:13:45.934Z,14.70
2022-08-30T23:16:15.182Z,15.20
2022-08-30T23:18:44.159Z,17.00
2022-08-30T23:21:17.815Z,15.60
2022-08-30T23:23:45.272Z,16.30
2022-08-30T23:26:11.916Z,15.10
2022-08-30T23:28:38.871Z,17.40
2022-08-30T23:31:11.790Z,16.80
2022-08-30T23:33:38.507Z,15.90
2022-08-30T23:36:14.204Z,14.40
2022-08-30T23:38:40.855Z,14.30
2022-08-30T23:41:07.546Z,16.30
2022-08-30T23:43:34.602Z,17.50
2022-08-30T23:46:01.149Z,15.40
2022-08-30T23:48:28.103Z,18.20
2022-08-30T23:50:54.935Z,14.30
2022-08-30T23:53:21.682Z,16.00
2022-08-30T23:55:48.425Z,13.70
2022-08-30T23:58:15.065Z,14.10
